Flight Track Log - Related Links

Times and Time Zones

All times are in EDT time to prevent confusion due to time zone crossing. See the EJA695 flight status page for this flight to view local times or setup timezone preferences in your user account.

Time Position Orientation Groundspeed Altitude Reporting Facility
EDT Latitude Longitude Course Direction KTS MPH feet Rate Location/Type
Tue 06:24:19 PM 34.4283 -119.8608 270° West 166 191 800  Level Los Angeles Center
Tue 06:24:52 PM 34.4283 -119.8856 270° West 171 197 1,900 2,147 Climbing Los Angeles Center
Tue 06:25:54 PM 34.4258 -119.9583 268° West 207 238 4,200 2,081 Climbing Los Angeles Center
Tue 06:26:56 PM 34.4242 -120.0500 269° West 260 299 6,200 2,274 Climbing Los Angeles Center
Tue 06:27:58 PM 34.4594 -120.1428 295° West 283 326 8,900 2,256 Climbing Los Angeles Center
Tue 06:29:01 PM 34.5281 -120.1986 326° Northwest 293 337 10,900 1,935 Climbing Los Angeles Center
Tue 06:30:02 PM 34.5969 -120.2564 325° Northwest 308 354 12,900 2,098 Climbing Los Angeles Center
Tue 06:31:04 PM 34.6825 -120.3294 325° Northwest 316 364 15,200 1,839 Climbing Los Angeles Center
Tue 06:32:06 PM 34.7575 -120.3942 325° Northwest 332 382 16,700 1,694 Climbing Los Angeles Center
Tue 06:33:08 PM 34.8397 -120.4658 324° Northwest 344 396 18,700 1,645 Climbing Los Angeles Center
Tue 06:34:10 PM 34.9128 -120.5289 325° Northwest 346 398 20,100 1,355 Climbing Los Angeles Center
Tue 06:35:12 PM 34.9947 -120.5997 325° Northwest 360 414 21,500 1,488 Climbing Los Angeles Center
Tue 06:36:15 PM 35.0961 -120.6861 325° Northwest 371 427 23,200 1,200 Climbing Los Angeles Center
Tue 06:37:17 PM 35.1803 -120.7611 324° Northwest 375 432 24,000 387 Climbing Los Angeles Center
Tue 06:38:19 PM 35.2719 -120.8394 325° Northwest 400 460 24,000  Level Los Angeles Center
Tue 06:39:21 PM 35.3708 -120.9150 328° Northwest 416 479 24,000  Level Los Angeles Center
Tue 06:40:23 PM 35.4694 -120.9878 329° Northwest 414 476 24,000  Level Los Angeles Center
Tue 06:41:25 PM 35.5672 -121.0614 329° Northwest 413 475 24,000  Level Los Angeles Center
Tue 06:42:06 PM 35.6372 -121.1169 327° Northwest 413 475 24,000  Level Oakland Center
Tue 06:43:07 PM 35.7350 -121.1911 328° Northwest 414 476 24,000  Level Oakland Center
Tue 06:44:09 PM 35.8336 -121.2650 329° Northwest 415 478 24,000  Level Oakland Center
Tue 06:45:10 PM 35.9314 -121.3417 328° Northwest 416 479 24,000  Level Oakland Center
Tue 06:46:11 PM 36.0489 -121.4306 329° Northwest 415 478 24,000  Level Oakland Center
Tue 06:47:12 PM 36.1469 -121.5056 328° Northwest 415 478 24,000  Level Oakland Center
Tue 06:48:14 PM 36.2489 -121.5831 328° Northwest 418 481 24,000  Level Oakland Center
Tue 06:49:15 PM 36.3425 -121.6556 328° Northwest 413 475 24,000 -49 Level Oakland Center
Tue 06:50:16 PM 36.4400 -121.7308 328° Northwest 416 479 23,900 -1,171 Descending Oakland Center
Tue 06:51:18 PM 36.5458 -121.8142 328° Northwest 426 490 21,600 -2,131 Descending Oakland Center
Tue 06:52:03 PM 36.6167 -121.8667 329° Northwest 413 475 20,100 -1,429 Descending Northern Cal TRACON
Tue 06:53:03 PM 36.7167 -121.9500 326° Northwest 401 461 19,100 -1,800 Descending Northern Cal TRACON
Tue 06:54:03 PM 36.8333 -121.9833 347° North 408 470 16,500 -2,600 Descending Northern Cal TRACON
Tue 06:55:03 PM 36.9333 -122.0167 345° North 399 459 13,900 -1,915 Descending Northern Cal TRACON
Tue 06:56:24 PM 37.0494 -122.0453 349° North 335 386 12,000 -930 Descending Oakland Center
Tue 06:57:25 PM 37.1344 -122.0664 349° North 313 360 11,700 -1,171 Descending Oakland Center
Tue 06:58:27 PM 37.1861 -122.1500 308° West 263 303 9,600 -1,805 Descending Oakland Center
Tue 06:59:28 PM 37.2217 -122.2258 301° West 255 293 8,000 -787 Descending Oakland Center
Tue 07:00:29 PM 37.2575 -122.3008 301° West 253 291 8,000  Level Oakland Center
Tue 07:01:31 PM 37.2936 -122.3772 301° West 254 292 8,000  Level Oakland Center
Tue 07:02:32 PM 37.3283 -122.4531 300° West 252 290 8,000  Level Oakland Center
Tue 07:03:33 PM 37.3731 -122.5211 310° West 268 308 8,000 -585 Level Oakland Center
Tue 07:04:35 PM 37.4092 -122.4664 50° Northeast 242 278 6,800 -976 Descending Oakland Center
Tue 07:05:36 PM 37.3944 -122.3900 104° East 231 266 6,000 -393 Descending Oakland Center
Tue 07:06:37 PM 37.3981 -122.3122 87° East 229 264 6,000 -48 Level Oakland Center
Tue 07:07:40 PM 37.4200 -122.2225 73° East 232 267 5,900 -390 Descending Oakland Center
Tue 07:08:40 PM 37.4750 -122.1758 34° Northeast 237 273 5,200 -793 Descending Oakland Center
Tue 07:09:41 PM 37.5269 -122.1647 10° North 215 247 4,300 -1,122 Descending Oakland Center
Tue 07:10:43 PM 37.5533 -122.2194 301° West 196 226 2,900 -1,317 Descending Oakland Center
Tue 07:11:44 PM 37.5764 -122.2725 299° West 183 211 1,600 -1,033 Descending Oakland Center
Tue 07:12:45 PM 37.5947 -122.3178 297° West 164 189 800 -634 Descending Oakland Center
Tue 07:13:47 PM 37.6136 -122.3603 299° West 148 170 300 -484 Descending Oakland Center

Login

Don't have an account? Register now (free) for customized features, flight alerts, and more!